sensor_id;sensor_type;location;lat;lon;timestamp;P1;durP1;ratioP1;P2;durP2;ratioP2
14858;SDS011;7521;51.700;6.874;2022-11-15T00:00:16;15.70;;;12.43;;
14858;SDS011;7521;51.700;6.874;2022-11-15T00:03:22;14.93;;;10.77;;
14858;SDS011;7521;51.700;6.874;2022-11-15T00:06:28;14.97;;;11.43;;
14858;SDS011;7521;51.700;6.874;2022-11-15T00:09:33;14.88;;;11.25;;
14858;SDS011;7521;51.700;6.874;2022-11-15T00:12:38;16.50;;;12.65;;
14858;SDS011;7521;51.700;6.874;2022-11-15T00:15:43;16.23;;;12.23;;
14858;SDS011;7521;51.700;6.874;2022-11-15T00:18:49;19.25;;;13.20;;
14858;SDS011;7521;51.700;6.874;2022-11-15T00:21:54;16.70;;;12.90;;
14858;SDS011;7521;51.700;6.874;2022-11-15T00:24:59;15.77;;;12.43;;
14858;SDS011;7521;51.700;6.874;2022-11-15T00:28:04;17.35;;;12.13;;
14858;SDS011;7521;51.700;6.874;2022-11-15T00:31:12;16.67;;;12.23;;
14858;SDS011;7521;51.700;6.874;2022-11-15T00:34:17;14.50;;;12.70;;
14858;SDS011;7521;51.700;6.874;2022-11-15T00:37:22;18.35;;;12.93;;
14858;SDS011;7521;51.700;6.874;2022-11-15T00:40:27;14.52;;;11.70;;
14858;SDS011;7521;51.700;6.874;2022-11-15T00:43:33;14.80;;;12.43;;
14858;SDS011;7521;51.700;6.874;2022-11-15T00:46:39;13.50;;;11.13;;
14858;SDS011;7521;51.700;6.874;2022-11-15T00:49:44;18.08;;;13.38;;
14858;SDS011;7521;51.700;6.874;2022-11-15T00:52:49;16.20;;;13.00;;
14858;SDS011;7521;51.700;6.874;2022-11-15T00:55:54;18.63;;;14.13;;
14858;SDS011;7521;51.700;6.874;2022-11-15T00:58:59;14.77;;;12.32;;
14858;SDS011;7521;51.700;6.874;2022-11-15T01:02:04;15.57;;;11.52;;
14858;SDS011;7521;51.700;6.874;2022-11-15T01:05:10;14.25;;;11.43;;
14858;SDS011;7521;51.700;6.874;2022-11-15T01:08:15;18.35;;;11.93;;
14858;SDS011;7521;51.700;6.874;2022-11-15T01:11:21;16.33;;;12.67;;
14858;SDS011;7521;51.700;6.874;2022-11-15T01:14:26;16.90;;;13.30;;
14858;SDS011;7521;51.700;6.874;2022-11-15T01:17:31;15.17;;;11.87;;
14858;SDS011;7521;51.700;6.874;2022-11-15T01:20:40;16.45;;;12.30;;
14858;SDS011;7521;51.700;6.874;2022-11-15T01:23:46;13.17;;;11.33;;
14858;SDS011;7521;51.700;6.874;2022-11-15T01:26:51;14.93;;;11.57;;
14858;SDS011;7521;51.700;6.874;2022-11-15T01:29:56;15.30;;;11.52;;
14858;SDS011;7521;51.700;6.874;2022-11-15T01:33:01;17.27;;;12.50;;
14858;SDS011;7521;51.700;6.874;2022-11-15T01:36:13;14.80;;;11.88;;
14858;SDS011;7521;51.700;6.874;2022-11-15T01:39:19;16.57;;;12.37;;
14858;SDS011;7521;51.700;6.874;2022-11-15T01:42:24;16.40;;;12.47;;
14858;SDS011;7521;51.700;6.874;2022-11-15T01:45:29;14.48;;;11.50;;
14858;SDS011;7521;51.700;6.874;2022-11-15T01:48:34;15.77;;;12.47;;
14858;SDS011;7521;51.700;6.874;2022-11-15T01:51:39;14.53;;;11.20;;
14858;SDS011;7521;51.700;6.874;2022-11-15T01:54:45;15.73;;;11.43;;
14858;SDS011;7521;51.700;6.874;2022-11-15T01:57:51;14.60;;;11.57;;
14858;SDS011;7521;51.700;6.874;2022-11-15T02:00:58;12.90;;;11.30;;
14858;SDS011;7521;51.700;6.874;2022-11-15T02:04:09;12.77;;;10.37;;
14858;SDS011;7521;51.700;6.874;2022-11-15T02:07:16;14.70;;;10.57;;
14858;SDS011;7521;51.700;6.874;2022-11-15T02:10:22;14.47;;;11.13;;
14858;SDS011;7521;51.700;6.874;2022-11-15T02:13:28;16.03;;;11.30;;
14858;SDS011;7521;51.700;6.874;2022-11-15T02:29:48;14.73;;;11.30;;
14858;SDS011;7521;51.700;6.874;2022-11-15T02:33:00;12.77;;;10.97;;
14858;SDS011;7521;51.700;6.874;2022-11-15T02:36:10;12.83;;;10.20;;
14858;SDS011;7521;51.700;6.874;2022-11-15T02:39:19;13.67;;;10.20;;
14858;SDS011;7521;51.700;6.874;2022-11-15T02:42:27;16.80;;;11.97;;
14858;SDS011;7521;51.700;6.874;2022-11-15T02:45:52;12.97;;;9.60;;
14858;SDS011;7521;51.700;6.874;2022-11-15T02:48:59;14.70;;;10.27;;
14858;SDS011;7521;51.700;6.874;2022-11-15T02:52:04;15.03;;;9.63;;
14858;SDS011;7521;51.700;6.874;2022-11-15T02:55:26;11.90;;;8.93;;
14858;SDS011;7521;51.700;6.874;2022-11-15T03:11:11;10.20;;;8.10;;
14858;SDS011;7521;51.700;6.874;2022-11-15T03:14:36;12.27;;;8.17;;
14858;SDS011;7521;51.700;6.874;2022-11-15T03:17:47;12.13;;;8.27;;
14858;SDS011;7521;51.700;6.874;2022-11-15T03:20:54;10.90;;;8.13;;
14858;SDS011;7521;51.700;6.874;2022-11-15T03:24:01;14.30;;;8.03;;
14858;SDS011;7521;51.700;6.874;2022-11-15T03:27:07;10.30;;;8.07;;
14858;SDS011;7521;51.700;6.874;2022-11-15T03:30:14;8.33;;;7.40;;
14858;SDS011;7521;51.700;6.874;2022-11-15T03:33:19;10.37;;;7.60;;
14858;SDS011;7521;51.700;6.874;2022-11-15T03:36:26;10.87;;;8.00;;
14858;SDS011;7521;51.700;6.874;2022-11-15T03:39:31;11.03;;;7.50;;
14858;SDS011;7521;51.700;6.874;2022-11-15T03:42:39;10.23;;;7.80;;
14858;SDS011;7521;51.700;6.874;2022-11-15T03:45:47;11.90;;;7.43;;
14858;SDS011;7521;51.700;6.874;2022-11-15T03:48:57;9.07;;;7.13;;
14858;SDS011;7521;51.700;6.874;2022-11-15T03:52:04;13.47;;;6.97;;
14858;SDS011;7521;51.700;6.874;2022-11-15T03:55:10;10.97;;;7.43;;
14858;SDS011;7521;51.700;6.874;2022-11-15T03:58:16;11.30;;;7.47;;
14858;SDS011;7521;51.700;6.874;2022-11-15T04:01:21;8.70;;;6.83;;
14858;SDS011;7521;51.700;6.874;2022-11-15T04:04:26;9.65;;;6.88;;
14858;SDS011;7521;51.700;6.874;2022-11-15T04:07:31;9.10;;;6.82;;
14858;SDS011;7521;51.700;6.874;2022-11-15T04:10:36;9.10;;;6.20;;
14858;SDS011;7521;51.700;6.874;2022-11-15T04:13:42;9.25;;;6.53;;
14858;SDS011;7521;51.700;6.874;2022-11-15T04:16:47;10.27;;;7.63;;
14858;SDS011;7521;51.700;6.874;2022-11-15T04:19:52;10.60;;;6.85;;
14858;SDS011;7521;51.700;6.874;2022-11-15T04:23:17;8.83;;;6.77;;
14858;SDS011;7521;51.700;6.874;2022-11-15T04:26:41;8.80;;;7.13;;
14858;SDS011;7521;51.700;6.874;2022-11-15T04:29:46;8.95;;;7.18;;
14858;SDS011;7521;51.700;6.874;2022-11-15T04:32:51;11.93;;;7.15;;
14858;SDS011;7521;51.700;6.874;2022-11-15T04:35:58;8.83;;;7.40;;
14858;SDS011;7521;51.700;6.874;2022-11-15T04:39:22;9.10;;;7.80;;
14858;SDS011;7521;51.700;6.874;2022-11-15T04:42:27;9.13;;;7.22;;
14858;SDS011;7521;51.700;6.874;2022-11-15T04:45:32;10.88;;;7.47;;
14858;SDS011;7521;51.700;6.874;2022-11-15T04:48:38;9.65;;;7.15;;
14858;SDS011;7521;51.700;6.874;2022-11-15T04:51:43;10.95;;;7.07;;
14858;SDS011;7521;51.700;6.874;2022-11-15T04:54:48;8.60;;;6.37;;
14858;SDS011;7521;51.700;6.874;2022-11-15T04:57:57;8.82;;;6.55;;
14858;SDS011;7521;51.700;6.874;2022-11-15T05:01:10;8.63;;;7.50;;
14858;SDS011;7521;51.700;6.874;2022-11-15T05:04:15;9.40;;;7.00;;
14858;SDS011;7521;51.700;6.874;2022-11-15T05:07:26;9.83;;;6.77;;
14858;SDS011;7521;51.700;6.874;2022-11-15T05:10:31;8.73;;;6.47;;
14858;SDS011;7521;51.700;6.874;2022-11-15T05:13:37;8.90;;;7.00;;
14858;SDS011;7521;51.700;6.874;2022-11-15T05:16:42;9.70;;;7.25;;
14858;SDS011;7521;51.700;6.874;2022-11-15T05:19:47;7.50;;;6.33;;
14858;SDS011;7521;51.700;6.874;2022-11-15T05:22:53;8.73;;;6.53;;
14858;SDS011;7521;51.700;6.874;2022-11-15T05:25:59;7.87;;;6.83;;
14858;SDS011;7521;51.700;6.874;2022-11-15T05:29:04;7.70;;;6.63;;
14858;SDS011;7521;51.700;6.874;2022-11-15T05:32:10;9.30;;;6.80;;
14858;SDS011;7521;51.700;6.874;2022-11-15T05:35:21;7.40;;;6.27;;
14858;SDS011;7521;51.700;6.874;2022-11-15T05:38:30;8.47;;;6.60;;
14858;SDS011;7521;51.700;6.874;2022-11-15T05:44:43;7.30;;;6.45;;
14858;SDS011;7521;51.700;6.874;2022-11-15T05:47:49;8.43;;;6.70;;
14858;SDS011;7521;51.700;6.874;2022-11-15T05:50:55;8.77;;;7.60;;
14858;SDS011;7521;51.700;6.874;2022-11-15T05:54:00;11.90;;;8.27;;
14858;SDS011;7521;51.700;6.874;2022-11-15T05:57:06;8.77;;;7.87;;
14858;SDS011;7521;51.700;6.874;2022-11-15T06:00:11;8.40;;;7.57;;
14858;SDS011;7521;51.700;6.874;2022-11-15T06:03:17;8.73;;;7.77;;
14858;SDS011;7521;51.700;6.874;2022-11-15T06:06:22;10.27;;;7.55;;
14858;SDS011;7521;51.700;6.874;2022-11-15T06:09:30;8.67;;;7.23;;
14858;SDS011;7521;51.700;6.874;2022-11-15T06:12:35;10.40;;;7.68;;
14858;SDS011;7521;51.700;6.874;2022-11-15T06:15:40;10.27;;;6.90;;
14858;SDS011;7521;51.700;6.874;2022-11-15T06:18:45;11.80;;;8.20;;
14858;SDS011;7521;51.700;6.874;2022-11-15T06:21:50;8.13;;;7.07;;
14858;SDS011;7521;51.700;6.874;2022-11-15T06:24:55;9.18;;;7.32;;
14858;SDS011;7521;51.700;6.874;2022-11-15T06:28:01;8.82;;;7.93;;
14858;SDS011;7521;51.700;6.874;2022-11-15T06:31:07;8.02;;;7.05;;
14858;SDS011;7521;51.700;6.874;2022-11-15T06:34:12;8.07;;;6.93;;
14858;SDS011;7521;51.700;6.874;2022-11-15T06:37:18;7.75;;;7.00;;
14858;SDS011;7521;51.700;6.874;2022-11-15T06:40:23;7.93;;;7.13;;
14858;SDS011;7521;51.700;6.874;2022-11-15T06:43:28;9.70;;;6.95;;
14858;SDS011;7521;51.700;6.874;2022-11-15T06:46:33;9.73;;;7.43;;
14858;SDS011;7521;51.700;6.874;2022-11-15T06:49:38;8.32;;;6.78;;
14858;SDS011;7521;51.700;6.874;2022-11-15T06:52:43;9.55;;;7.07;;
14858;SDS011;7521;51.700;6.874;2022-11-15T06:55:49;7.93;;;7.13;;
14858;SDS011;7521;51.700;6.874;2022-11-15T06:58:54;9.60;;;7.60;;
14858;SDS011;7521;51.700;6.874;2022-11-15T07:02:00;9.27;;;7.67;;
14858;SDS011;7521;51.700;6.874;2022-11-15T07:05:05;11.10;;;9.52;;
14858;SDS011;7521;51.700;6.874;2022-11-15T07:08:10;11.37;;;9.13;;
14858;SDS011;7521;51.700;6.874;2022-11-15T07:11:15;9.80;;;8.10;;
14858;SDS011;7521;51.700;6.874;2022-11-15T07:14:20;11.75;;;10.02;;
14858;SDS011;7521;51.700;6.874;2022-11-15T07:17:26;9.82;;;8.25;;
14858;SDS011;7521;51.700;6.874;2022-11-15T07:20:31;12.45;;;10.30;;
14858;SDS011;7521;51.700;6.874;2022-11-15T07:23:37;9.95;;;6.60;;
14858;SDS011;7521;51.700;6.874;2022-11-15T07:26:43;7.17;;;6.13;;
14858;SDS011;7521;51.700;6.874;2022-11-15T07:29:48;7.10;;;6.03;;
14858;SDS011;7521;51.700;6.874;2022-11-15T07:32:56;6.85;;;5.30;;
14858;SDS011;7521;51.700;6.874;2022-11-15T07:36:03;6.60;;;5.30;;
14858;SDS011;7521;51.700;6.874;2022-11-15T07:39:08;5.50;;;4.87;;
14858;SDS011;7521;51.700;6.874;2022-11-15T07:42:13;7.13;;;5.60;;
14858;SDS011;7521;51.700;6.874;2022-11-15T07:45:43;6.20;;;5.37;;
14858;SDS011;7521;51.700;6.874;2022-11-15T07:48:48;6.50;;;4.90;;
14858;SDS011;7521;51.700;6.874;2022-11-15T07:51:53;5.80;;;4.80;;
14858;SDS011;7521;51.700;6.874;2022-11-15T07:54:59;6.95;;;4.88;;
14858;SDS011;7521;51.700;6.874;2022-11-15T07:58:05;7.03;;;4.78;;
14858;SDS011;7521;51.700;6.874;2022-11-15T08:01:10;5.57;;;4.63;;
14858;SDS011;7521;51.700;6.874;2022-11-15T08:04:15;5.97;;;4.40;;
14858;SDS011;7521;51.700;6.874;2022-11-15T08:07:20;5.13;;;4.17;;
14858;SDS011;7521;51.700;6.874;2022-11-15T08:10:26;4.82;;;4.20;;
14858;SDS011;7521;51.700;6.874;2022-11-15T08:13:31;7.10;;;4.60;;
14858;SDS011;7521;51.700;6.874;2022-11-15T08:16:36;6.45;;;4.22;;
14858;SDS011;7521;51.700;6.874;2022-11-15T08:19:41;4.00;;;3.28;;
14858;SDS011;7521;51.700;6.874;2022-11-15T08:22:46;5.75;;;3.33;;
14858;SDS011;7521;51.700;6.874;2022-11-15T08:25:52;5.33;;;3.00;;
14858;SDS011;7521;51.700;6.874;2022-11-15T08:28:57;3.72;;;2.80;;
14858;SDS011;7521;51.700;6.874;2022-11-15T08:32:02;3.92;;;2.55;;
14858;SDS011;7521;51.700;6.874;2022-11-15T08:35:08;4.17;;;2.07;;
14858;SDS011;7521;51.700;6.874;2022-11-15T08:38:13;4.23;;;1.93;;
14858;SDS011;7521;51.700;6.874;2022-11-15T08:41:39;3.50;;;1.77;;
14858;SDS011;7521;51.700;6.874;2022-11-15T08:44:44;3.60;;;2.10;;
14858;SDS011;7521;51.700;6.874;2022-11-15T08:47:49;3.23;;;2.17;;
14858;SDS011;7521;51.700;6.874;2022-11-15T08:50:55;5.47;;;2.30;;
14858;SDS011;7521;51.700;6.874;2022-11-15T08:54:00;2.47;;;2.07;;
14858;SDS011;7521;51.700;6.874;2022-11-15T08:57:05;4.00;;;1.98;;
14858;SDS011;7521;51.700;6.874;2022-11-15T09:00:11;4.07;;;2.23;;
14858;SDS011;7521;51.700;6.874;2022-11-15T09:03:17;4.03;;;2.00;;
14858;SDS011;7521;51.700;6.874;2022-11-15T09:06:22;2.90;;;1.92;;
14858;SDS011;7521;51.700;6.874;2022-11-15T09:09:27;2.97;;;2.00;;
14858;SDS011;7521;51.700;6.874;2022-11-15T09:12:32;3.45;;;1.80;;
14858;SDS011;7521;51.700;6.874;2022-11-15T09:15:38;3.13;;;1.70;;
14858;SDS011;7521;51.700;6.874;2022-11-15T09:18:43;2.00;;;1.53;;
14858;SDS011;7521;51.700;6.874;2022-11-15T09:21:48;1.80;;;1.30;;
14858;SDS011;7521;51.700;6.874;2022-11-15T09:24:53;2.50;;;1.40;;
14858;SDS011;7521;51.700;6.874;2022-11-15T09:27:59;5.47;;;1.43;;
14858;SDS011;7521;51.700;6.874;2022-11-15T09:31:05;2.40;;;0.85;;
14858;SDS011;7521;51.700;6.874;2022-11-15T09:34:11;1.70;;;0.90;;
14858;SDS011;7521;51.700;6.874;2022-11-15T09:37:16;2.37;;;1.07;;
14858;SDS011;7521;51.700;6.874;2022-11-15T09:40:21;1.90;;;1.23;;
14858;SDS011;7521;51.700;6.874;2022-11-15T09:43:44;1.87;;;1.13;;
14858;SDS011;7521;51.700;6.874;2022-11-15T09:47:01;4.07;;;1.60;;
14858;SDS011;7521;51.700;6.874;2022-11-15T09:50:09;6.50;;;1.77;;
14858;SDS011;7521;51.700;6.874;2022-11-15T09:53:21;4.03;;;2.60;;
14858;SDS011;7521;51.700;6.874;2022-11-15T09:56:29;5.03;;;3.30;;
14858;SDS011;7521;51.700;6.874;2022-11-15T10:00:08;6.93;;;4.30;;
14858;SDS011;7521;51.700;6.874;2022-11-15T10:06:23;7.93;;;3.33;;
14858;SDS011;7521;51.700;6.874;2022-11-15T10:09:47;5.37;;;2.80;;
14858;SDS011;7521;51.700;6.874;2022-11-15T10:12:53;6.93;;;3.00;;
14858;SDS011;7521;51.700;6.874;2022-11-15T10:16:03;4.13;;;2.10;;
14858;SDS011;7521;51.700;6.874;2022-11-15T10:22:46;3.70;;;2.43;;
14858;SDS011;7521;51.700;6.874;2022-11-15T10:25:56;4.20;;;2.17;;
14858;SDS011;7521;51.700;6.874;2022-11-15T10:29:02;2.83;;;1.97;;
14858;SDS011;7521;51.700;6.874;2022-11-15T10:32:07;4.00;;;2.47;;
14858;SDS011;7521;51.700;6.874;2022-11-15T10:35:29;7.80;;;2.58;;
14858;SDS011;7521;51.700;6.874;2022-11-15T10:41:54;5.33;;;2.33;;
14858;SDS011;7521;51.700;6.874;2022-11-15T10:45:00;4.20;;;2.60;;
14858;SDS011;7521;51.700;6.874;2022-11-15T10:51:20;3.67;;;2.73;;
14858;SDS011;7521;51.700;6.874;2022-11-15T10:54:32;5.23;;;2.83;;
14858;SDS011;7521;51.700;6.874;2022-11-15T10:57:38;4.03;;;2.37;;
14858;SDS011;7521;51.700;6.874;2022-11-15T11:00:44;4.20;;;2.20;;
14858;SDS011;7521;51.700;6.874;2022-11-15T11:04:07;3.40;;;2.27;;
14858;SDS011;7521;51.700;6.874;2022-11-15T11:07:20;3.53;;;1.80;;
14858;SDS011;7521;51.700;6.874;2022-11-15T11:10:25;10.60;;;2.33;;
14858;SDS011;7521;51.700;6.874;2022-11-15T11:13:39;6.53;;;1.60;;
14858;SDS011;7521;51.700;6.874;2022-11-15T11:16:47;1.80;;;1.27;;
14858;SDS011;7521;51.700;6.874;2022-11-15T11:23:05;5.43;;;1.40;;
14858;SDS011;7521;51.700;6.874;2022-11-15T11:39:21;3.67;;;1.30;;
14858;SDS011;7521;51.700;6.874;2022-11-15T11:42:32;3.70;;;1.40;;
14858;SDS011;7521;51.700;6.874;2022-11-15T11:49:02;3.93;;;1.20;;
14858;SDS011;7521;51.700;6.874;2022-11-15T11:55:37;1.67;;;1.20;;
14858;SDS011;7521;51.700;6.874;2022-11-15T11:58:44;4.40;;;1.47;;
14858;SDS011;7521;51.700;6.874;2022-11-15T12:01:49;4.00;;;1.50;;
14858;SDS011;7521;51.700;6.874;2022-11-15T12:04:57;4.77;;;1.10;;
14858;SDS011;7521;51.700;6.874;2022-11-15T12:15:02;2.07;;;1.00;;
14858;SDS011;7521;51.700;6.874;2022-11-15T12:18:11;4.83;;;1.07;;
14858;SDS011;7521;51.700;6.874;2022-11-15T12:24:29;2.60;;;1.10;;
14858;SDS011;7521;51.700;6.874;2022-11-15T12:31:05;2.73;;;0.80;;
14858;SDS011;7521;51.700;6.874;2022-11-15T12:41:11;3.67;;;1.00;;
14858;SDS011;7521;51.700;6.874;2022-11-15T12:44:59;5.50;;;1.10;;
14858;SDS011;7521;51.700;6.874;2022-11-15T12:47:39;2.23;;;0.80;;
14858;SDS011;7521;51.700;6.874;2022-11-15T12:51:03;2.45;;;0.98;;
14858;SDS011;7521;51.700;6.874;2022-11-15T12:57:29;2.83;;;0.90;;
14858;SDS011;7521;51.700;6.874;2022-11-15T13:00:36;1.87;;;0.70;;
14858;SDS011;7521;51.700;6.874;2022-11-15T13:07:06;2.60;;;0.90;;
14858;SDS011;7521;51.700;6.874;2022-11-15T13:13:41;2.40;;;1.10;;
14858;SDS011;7521;51.700;6.874;2022-11-15T13:16:42;5.13;;;0.90;;
14858;SDS011;7521;51.700;6.874;2022-11-15T13:19:53;3.43;;;0.80;;
14858;SDS011;7521;51.700;6.874;2022-11-15T13:26:13;2.23;;;0.87;;
14858;SDS011;7521;51.700;6.874;2022-11-15T13:29:21;3.57;;;1.03;;
14858;SDS011;7521;51.700;6.874;2022-11-15T13:32:26;2.37;;;0.80;;
14858;SDS011;7521;51.700;6.874;2022-11-15T13:35:31;2.75;;;0.70;;
14858;SDS011;7521;51.700;6.874;2022-11-15T13:38:39;3.13;;;0.70;;
14858;SDS011;7521;51.700;6.874;2022-11-15T13:41:45;2.30;;;1.00;;
14858;SDS011;7521;51.700;6.874;2022-11-15T13:44:58;2.80;;;1.03;;
14858;SDS011;7521;51.700;6.874;2022-11-15T13:48:04;3.27;;;1.17;;
14858;SDS011;7521;51.700;6.874;2022-11-15T13:51:18;3.63;;;1.20;;
14858;SDS011;7521;51.700;6.874;2022-11-15T13:54:26;2.93;;;0.83;;
14858;SDS011;7521;51.700;6.874;2022-11-15T13:57:50;2.70;;;0.87;;
14858;SDS011;7521;51.700;6.874;2022-11-15T14:01:03;4.23;;;0.90;;
14858;SDS011;7521;51.700;6.874;2022-11-15T14:04:09;2.73;;;0.83;;
14858;SDS011;7521;51.700;6.874;2022-11-15T14:07:17;2.13;;;0.60;;
14858;SDS011;7521;51.700;6.874;2022-11-15T14:13:34;2.93;;;0.67;;
14858;SDS011;7521;51.700;6.874;2022-11-15T14:16:41;2.50;;;0.90;;
14858;SDS011;7521;51.700;6.874;2022-11-15T14:19:46;2.87;;;0.80;;
14858;SDS011;7521;51.700;6.874;2022-11-15T14:22:55;3.10;;;1.00;;
14858;SDS011;7521;51.700;6.874;2022-11-15T14:26:01;4.50;;;1.50;;
14858;SDS011;7521;51.700;6.874;2022-11-15T14:29:39;2.83;;;0.98;;
14858;SDS011;7521;51.700;6.874;2022-11-15T14:32:45;3.13;;;1.40;;
14858;SDS011;7521;51.700;6.874;2022-11-15T14:35:51;4.73;;;1.43;;
14858;SDS011;7521;51.700;6.874;2022-11-15T14:38:57;4.67;;;1.43;;
14858;SDS011;7521;51.700;6.874;2022-11-15T14:42:02;2.45;;;1.20;;
14858;SDS011;7521;51.700;6.874;2022-11-15T14:45:18;3.33;;;0.90;;
14858;SDS011;7521;51.700;6.874;2022-11-15T14:48:23;5.07;;;1.00;;
14858;SDS011;7521;51.700;6.874;2022-11-15T14:51:29;2.95;;;0.90;;
14858;SDS011;7521;51.700;6.874;2022-11-15T14:54:34;3.70;;;0.80;;
14858;SDS011;7521;51.700;6.874;2022-11-15T14:57:39;2.00;;;0.95;;
14858;SDS011;7521;51.700;6.874;2022-11-15T15:00:44;4.80;;;0.80;;
14858;SDS011;7521;51.700;6.874;2022-11-15T15:03:50;2.05;;;0.85;;
14858;SDS011;7521;51.700;6.874;2022-11-15T15:06:56;3.33;;;0.77;;
14858;SDS011;7521;51.700;6.874;2022-11-15T15:10:02;3.13;;;0.80;;
14858;SDS011;7521;51.700;6.874;2022-11-15T15:13:14;2.40;;;1.10;;
14858;SDS011;7521;51.700;6.874;2022-11-15T15:16:20;2.10;;;0.87;;
14858;SDS011;7521;51.700;6.874;2022-11-15T15:19:25;3.57;;;1.10;;
14858;SDS011;7521;51.700;6.874;2022-11-15T15:22:30;3.60;;;1.00;;
14858;SDS011;7521;51.700;6.874;2022-11-15T15:25:36;2.60;;;0.80;;
14858;SDS011;7521;51.700;6.874;2022-11-15T15:28:41;4.00;;;1.00;;
14858;SDS011;7521;51.700;6.874;2022-11-15T15:31:46;5.43;;;1.30;;
14858;SDS011;7521;51.700;6.874;2022-11-15T15:34:51;4.87;;;1.23;;
14858;SDS011;7521;51.700;6.874;2022-11-15T15:37:56;2.45;;;1.25;;
14858;SDS011;7521;51.700;6.874;2022-11-15T15:41:02;5.83;;;1.83;;
14858;SDS011;7521;51.700;6.874;2022-11-15T15:44:07;3.63;;;1.30;;
14858;SDS011;7521;51.700;6.874;2022-11-15T15:47:16;3.77;;;2.10;;
14858;SDS011;7521;51.700;6.874;2022-11-15T15:50:27;3.67;;;1.50;;
14858;SDS011;7521;51.700;6.874;2022-11-15T15:53:32;4.97;;;2.20;;
14858;SDS011;7521;51.700;6.874;2022-11-15T15:56:38;3.80;;;1.77;;
14858;SDS011;7521;51.700;6.874;2022-11-15T15:59:43;5.05;;;2.00;;
14858;SDS011;7521;51.700;6.874;2022-11-15T16:02:48;3.40;;;1.53;;
14858;SDS011;7521;51.700;6.874;2022-11-15T16:05:53;2.90;;;1.80;;
14858;SDS011;7521;51.700;6.874;2022-11-15T16:08:59;3.73;;;2.43;;
14858;SDS011;7521;51.700;6.874;2022-11-15T16:12:04;2.80;;;2.08;;
14858;SDS011;7521;51.700;6.874;2022-11-15T16:15:10;4.73;;;2.03;;
14858;SDS011;7521;51.700;6.874;2022-11-15T16:18:16;7.97;;;2.58;;
14858;SDS011;7521;51.700;6.874;2022-11-15T16:21:21;4.50;;;2.23;;
14858;SDS011;7521;51.700;6.874;2022-11-15T16:24:26;3.92;;;2.72;;
14858;SDS011;7521;51.700;6.874;2022-11-15T16:27:32;5.88;;;4.07;;
14858;SDS011;7521;51.700;6.874;2022-11-15T16:30:37;6.05;;;3.67;;
14858;SDS011;7521;51.700;6.874;2022-11-15T16:33:42;7.32;;;3.33;;
14858;SDS011;7521;51.700;6.874;2022-11-15T16:36:47;6.10;;;3.60;;
14858;SDS011;7521;51.700;6.874;2022-11-15T16:39:53;5.43;;;3.40;;
14858;SDS011;7521;51.700;6.874;2022-11-15T16:42:58;4.90;;;2.87;;
14858;SDS011;7521;51.700;6.874;2022-11-15T16:46:06;6.57;;;3.50;;
14858;SDS011;7521;51.700;6.874;2022-11-15T16:49:12;7.80;;;3.27;;
14858;SDS011;7521;51.700;6.874;2022-11-15T16:52:18;5.90;;;3.20;;
14858;SDS011;7521;51.700;6.874;2022-11-15T16:55:25;5.93;;;2.80;;
14858;SDS011;7521;51.700;6.874;2022-11-15T16:58:30;5.33;;;2.30;;
14858;SDS011;7521;51.700;6.874;2022-11-15T17:01:37;4.03;;;2.50;;
14858;SDS011;7521;51.700;6.874;2022-11-15T17:04:50;5.73;;;3.30;;
14858;SDS011;7521;51.700;6.874;2022-11-15T17:07:55;9.40;;;3.80;;
14858;SDS011;7521;51.700;6.874;2022-11-15T17:11:04;5.32;;;3.67;;
14858;SDS011;7521;51.700;6.874;2022-11-15T17:14:09;4.87;;;3.00;;
14858;SDS011;7521;51.700;6.874;2022-11-15T17:17:14;5.00;;;2.87;;
14858;SDS011;7521;51.700;6.874;2022-11-15T17:20:20;4.35;;;2.97;;
14858;SDS011;7521;51.700;6.874;2022-11-15T17:23:26;3.63;;;2.67;;
14858;SDS011;7521;51.700;6.874;2022-11-15T17:26:31;6.72;;;3.78;;
14858;SDS011;7521;51.700;6.874;2022-11-15T17:29:36;7.60;;;4.93;;
14858;SDS011;7521;51.700;6.874;2022-11-15T17:32:41;7.80;;;3.80;;
14858;SDS011;7521;51.700;6.874;2022-11-15T17:35:53;16.77;;;10.20;;
14858;SDS011;7521;51.700;6.874;2022-11-15T17:38:59;14.23;;;10.27;;
14858;SDS011;7521;51.700;6.874;2022-11-15T17:42:04;12.23;;;8.77;;
14858;SDS011;7521;51.700;6.874;2022-11-15T17:45:09;57.45;;;37.78;;
14858;SDS011;7521;51.700;6.874;2022-11-15T17:48:15;7.90;;;6.10;;
14858;SDS011;7521;51.700;6.874;2022-11-15T17:51:20;6.88;;;4.32;;
14858;SDS011;7521;51.700;6.874;2022-11-15T17:54:27;5.83;;;3.27;;
14858;SDS011;7521;51.700;6.874;2022-11-15T17:57:32;5.33;;;3.30;;
14858;SDS011;7521;51.700;6.874;2022-11-15T18:00:37;5.47;;;3.73;;
14858;SDS011;7521;51.700;6.874;2022-11-15T18:03:42;6.00;;;3.88;;
14858;SDS011;7521;51.700;6.874;2022-11-15T18:06:47;6.55;;;3.75;;
14858;SDS011;7521;51.700;6.874;2022-11-15T18:09:52;6.00;;;3.55;;
14858;SDS011;7521;51.700;6.874;2022-11-15T18:12:58;5.55;;;3.03;;
14858;SDS011;7521;51.700;6.874;2022-11-15T18:16:07;5.47;;;3.05;;
14858;SDS011;7521;51.700;6.874;2022-11-15T18:19:13;4.73;;;3.10;;
14858;SDS011;7521;51.700;6.874;2022-11-15T18:22:19;7.13;;;2.70;;
14858;SDS011;7521;51.700;6.874;2022-11-15T18:25:24;4.53;;;3.70;;
14858;SDS011;7521;51.700;6.874;2022-11-15T18:28:30;5.57;;;3.70;;
14858;SDS011;7521;51.700;6.874;2022-11-15T18:31:36;4.10;;;3.17;;
14858;SDS011;7521;51.700;6.874;2022-11-15T18:34:41;4.25;;;2.97;;
14858;SDS011;7521;51.700;6.874;2022-11-15T18:37:46;6.72;;;3.22;;
14858;SDS011;7521;51.700;6.874;2022-11-15T18:40:51;3.92;;;2.83;;
14858;SDS011;7521;51.700;6.874;2022-11-15T18:43:57;4.50;;;2.70;;
14858;SDS011;7521;51.700;6.874;2022-11-15T18:47:03;4.27;;;2.27;;
14858;SDS011;7521;51.700;6.874;2022-11-15T18:50:08;3.97;;;2.90;;
14858;SDS011;7521;51.700;6.874;2022-11-15T18:53:14;4.88;;;2.35;;
14858;SDS011;7521;51.700;6.874;2022-11-15T18:56:20;3.77;;;2.20;;
14858;SDS011;7521;51.700;6.874;2022-11-15T18:59:26;4.40;;;2.00;;
14858;SDS011;7521;51.700;6.874;2022-11-15T19:02:31;2.87;;;2.20;;
14858;SDS011;7521;51.700;6.874;2022-11-15T19:05:37;3.30;;;2.40;;
14858;SDS011;7521;51.700;6.874;2022-11-15T19:08:43;3.95;;;2.40;;
14858;SDS011;7521;51.700;6.874;2022-11-15T19:11:49;2.40;;;2.00;;
14858;SDS011;7521;51.700;6.874;2022-11-15T19:14:55;3.37;;;2.53;;
14858;SDS011;7521;51.700;6.874;2022-11-15T19:18:00;2.78;;;2.28;;
14858;SDS011;7521;51.700;6.874;2022-11-15T19:21:06;4.10;;;2.40;;
14858;SDS011;7521;51.700;6.874;2022-11-15T19:24:12;2.57;;;2.30;;
14858;SDS011;7521;51.700;6.874;2022-11-15T19:27:17;3.00;;;2.03;;
14858;SDS011;7521;51.700;6.874;2022-11-15T19:30:23;3.87;;;2.73;;
14858;SDS011;7521;51.700;6.874;2022-11-15T19:33:28;4.13;;;2.53;;
14858;SDS011;7521;51.700;6.874;2022-11-15T19:36:35;6.60;;;3.67;;
14858;SDS011;7521;51.700;6.874;2022-11-15T19:39:41;6.60;;;2.63;;
14858;SDS011;7521;51.700;6.874;2022-11-15T19:42:46;3.55;;;2.97;;
14858;SDS011;7521;51.700;6.874;2022-11-15T19:45:52;2.83;;;2.53;;
14858;SDS011;7521;51.700;6.874;2022-11-15T19:48:57;4.70;;;2.60;;
14858;SDS011;7521;51.700;6.874;2022-11-15T19:52:02;5.30;;;3.87;;
14858;SDS011;7521;51.700;6.874;2022-11-15T19:55:08;5.83;;;4.47;;
14858;SDS011;7521;51.700;6.874;2022-11-15T19:58:13;9.77;;;7.23;;
14858;SDS011;7521;51.700;6.874;2022-11-15T20:01:28;8.83;;;5.57;;
14858;SDS011;7521;51.700;6.874;2022-11-15T20:04:34;5.50;;;3.70;;
14858;SDS011;7521;51.700;6.874;2022-11-15T20:07:39;3.97;;;2.95;;
14858;SDS011;7521;51.700;6.874;2022-11-15T20:10:44;6.05;;;3.72;;
14858;SDS011;7521;51.700;6.874;2022-11-15T20:13:50;2.90;;;2.57;;
14858;SDS011;7521;51.700;6.874;2022-11-15T20:16:55;3.17;;;2.60;;
14858;SDS011;7521;51.700;6.874;2022-11-15T20:20:00;3.97;;;2.78;;
14858;SDS011;7521;51.700;6.874;2022-11-15T20:23:05;4.90;;;4.32;;
14858;SDS011;7521;51.700;6.874;2022-11-15T20:26:10;3.80;;;3.20;;
14858;SDS011;7521;51.700;6.874;2022-11-15T20:29:16;5.63;;;4.23;;
14858;SDS011;7521;51.700;6.874;2022-11-15T20:32:21;4.23;;;2.50;;
14858;SDS011;7521;51.700;6.874;2022-11-15T20:35:26;3.40;;;2.88;;
14858;SDS011;7521;51.700;6.874;2022-11-15T20:38:31;4.15;;;3.05;;